createdAt,value
2023-03-27T00:01:53.125Z,98952.16
2023-03-27T00:04:56.144Z,98948.06
2023-03-27T00:08:01.736Z,98943.63
2023-03-27T00:11:07.521Z,98933.78
2023-03-27T00:14:11.784Z,98935.78
2023-03-27T00:17:14.802Z,98937.09
2023-03-27T00:20:22.339Z,98937.56
2023-03-27T00:23:25.638Z,98937.91
2023-03-27T00:26:30.631Z,98936.91
2023-03-27T00:29:33.548Z,98935.09
2023-03-27T00:32:36.518Z,98943.75
2023-03-27T00:35:39.648Z,98930.66
2023-03-27T00:38:43.822Z,98925.00
2023-03-27T00:41:47.673Z,98929.13
2023-03-27T00:44:51.834Z,98913.19
2023-03-27T00:47:59.589Z,98909.41
2023-03-27T00:51:03.691Z,98910.78
2023-03-27T00:54:07.245Z,98911.00
2023-03-27T00:57:14.240Z,98909.66
2023-03-27T01:00:17.906Z,98908.13
2023-03-27T01:03:25.540Z,98906.81
2023-03-27T01:06:30.681Z,98900.50
2023-03-27T01:09:34.344Z,98905.47
2023-03-27T01:12:50.430Z,98900.72
2023-03-27T01:16:07.161Z,98881.25
2023-03-27T01:19:26.325Z,98890.53
2023-03-27T01:22:59.642Z,98882.25
2023-03-27T01:26:39.494Z,98875.16
2023-03-27T01:29:52.814Z,98871.41
2023-03-27T01:33:18.621Z,98860.47
2023-03-27T01:36:52.279Z,98853.59
2023-03-27T01:40:18.077Z,98837.22
2023-03-27T01:43:40.383Z,98817.75
2023-03-27T01:46:58.733Z,98818.38
2023-03-27T01:50:19.774Z,98795.91
2023-03-27T01:53:31.750Z,98789.00
2023-03-27T01:56:39.456Z,98782.53
2023-03-27T01:59:46.250Z,98788.94
2023-03-27T02:02:58.459Z,98780.06
2023-03-27T02:06:25.180Z,98760.75
2023-03-27T02:09:42.432Z,98764.41
2023-03-27T02:12:50.442Z,98763.53
2023-03-27T02:15:56.690Z,98757.56
2023-03-27T02:19:03.394Z,98756.97
2023-03-27T02:22:07.805Z,98753.06
2023-03-27T02:25:24.119Z,98752.06
2023-03-27T02:29:04.429Z,98753.97
2023-03-27T02:32:25.330Z,98757.25
2023-03-27T02:35:37.433Z,98754.06
2023-03-27T02:38:47.189Z,98748.00
2023-03-27T02:42:18.769Z,98738.91
2023-03-27T02:45:41.379Z,98730.59
2023-03-27T02:48:49.039Z,98723.97
2023-03-27T02:52:01.516Z,98711.72
2023-03-27T02:55:10.849Z,98705.63
2023-03-27T02:58:19.920Z,98705.53
2023-03-27T03:01:32.900Z,98698.25
2023-03-27T03:05:13.902Z,98698.56
2023-03-27T03:08:17.050Z,98697.91
2023-03-27T03:11:22.058Z,98695.00
2023-03-27T03:14:31.940Z,98691.38
2023-03-27T03:17:35.031Z,98687.97
2023-03-27T03:20:39.857Z,98680.34
2023-03-27T03:23:57.767Z,98669.94
2023-03-27T03:27:03.969Z,98663.75
2023-03-27T03:30:10.493Z,98666.84
2023-03-27T03:33:26.112Z,98665.75
2023-03-27T03:36:31.051Z,98667.09
2023-03-27T03:39:34.018Z,98659.16
2023-03-27T03:42:36.601Z,98656.47
2023-03-27T03:45:39.902Z,98656.59
2023-03-27T03:48:42.566Z,98661.25
2023-03-27T03:51:46.022Z,98659.28
2023-03-27T03:54:49.721Z,98656.63
2023-03-27T03:57:52.142Z,98650.44
2023-03-27T04:01:03.067Z,98638.16
2023-03-27T04:04:25.909Z,98639.94
2023-03-27T04:07:40.599Z,98629.22
2023-03-27T04:10:59.897Z,98622.38
2023-03-27T04:14:21.387Z,98615.53
2023-03-27T04:17:26.712Z,98606.59
2023-03-27T04:20:34.927Z,98613.31
2023-03-27T04:23:45.278Z,98623.91
2023-03-27T04:26:51.529Z,98628.91
2023-03-27T04:30:02.791Z,98635.06
2023-03-27T04:33:24.082Z,98628.13
2023-03-27T04:36:35.630Z,98627.66
2023-03-27T04:39:46.456Z,98629.84
2023-03-27T04:42:50.249Z,98628.88
2023-03-27T04:45:53.566Z,98623.91
2023-03-27T04:48:56.541Z,98623.25
2023-03-27T04:52:25.822Z,98626.47
2023-03-27T04:55:30.472Z,98616.41
2023-03-27T04:58:36.698Z,98620.16
2023-03-27T05:02:19.551Z,98619.72
2023-03-27T05:05:30.202Z,98613.75
2023-03-27T05:08:38.599Z,98609.19
2023-03-27T05:11:41.204Z,98619.47
2023-03-27T05:14:44.843Z,98618.59
2023-03-27T05:17:59.494Z,98615.94
2023-03-27T05:21:02.480Z,98623.66
2023-03-27T05:24:05.581Z,98620.03
2023-03-27T05:27:08.421Z,98617.22
2023-03-27T05:30:17.298Z,98615.72
2023-03-27T05:33:21.428Z,98614.16
2023-03-27T05:36:24.265Z,98611.19
2023-03-27T05:39:27.272Z,98610.50
2023-03-27T05:42:30.035Z,98606.88
2023-03-27T05:45:34.198Z,98603.66
2023-03-27T05:48:38.707Z,98602.00
2023-03-27T05:51:46.971Z,98604.25
2023-03-27T05:54:55.490Z,98604.22
2023-03-27T05:57:59.177Z,98595.63
2023-03-27T06:01:03.511Z,98597.63
2023-03-27T06:04:09.458Z,98604.88
2023-03-27T06:19:33.414Z,98610.56
2023-03-27T06:22:39.457Z,98611.22
2023-03-27T06:25:43.693Z,98611.09
2023-03-27T06:28:48.644Z,98601.03
2023-03-27T06:31:51.787Z,98607.00
2023-03-27T06:34:59.673Z,98588.44
2023-03-27T06:38:23.051Z,98582.91
2023-03-27T06:41:25.868Z,98577.63
2023-03-27T06:44:45.590Z,98587.25
2023-03-27T06:48:12.992Z,98580.94
2023-03-27T06:51:23.182Z,98582.88
2023-03-27T06:54:28.347Z,98578.47
2023-03-27T06:57:31.456Z,98586.41
2023-03-27T07:00:39.208Z,98573.50
2023-03-27T07:04:01.977Z,98576.66
2023-03-27T07:07:23.656Z,98563.84
2023-03-27T07:10:27.013Z,98566.09
2023-03-27T07:13:31.023Z,98560.31
2023-03-27T07:16:36.727Z,98559.63
2023-03-27T07:19:39.814Z,98555.97
2023-03-27T07:22:47.150Z,98548.59
2023-03-27T07:26:09.659Z,98543.22
2023-03-27T07:29:50.780Z,98540.44
2023-03-27T07:32:58.957Z,98546.91
2023-03-27T07:36:06.839Z,98532.22
2023-03-27T07:39:29.647Z,98530.69
2023-03-27T07:42:34.713Z,98525.69
2023-03-27T07:45:41.611Z,98521.00
2023-03-27T07:48:44.660Z,98518.53
2023-03-27T07:51:53.852Z,98523.25
2023-03-27T07:54:57.180Z,98510.91
2023-03-27T07:58:07.118Z,98508.59
2023-03-27T08:01:12.451Z,98499.34
2023-03-27T08:04:15.646Z,98492.69
2023-03-27T08:07:30.300Z,98488.25
2023-03-27T08:10:36.766Z,98487.34
2023-03-27T08:13:41.049Z,98490.75
2023-03-27T08:16:43.973Z,98486.63
2023-03-27T08:19:47.199Z,98488.16
2023-03-27T08:22:52.871Z,98480.97
2023-03-27T08:26:07.601Z,98470.69
2023-03-27T08:29:17.676Z,98474.41
2023-03-27T08:32:23.759Z,98478.50
2023-03-27T08:35:28.873Z,98474.22
2023-03-27T08:38:33.632Z,98481.75
2023-03-27T08:41:56.289Z,98481.34
2023-03-27T08:45:24.875Z,98477.59
2023-03-27T08:48:35.013Z,98476.22
2023-03-27T08:51:56.861Z,98475.97
2023-03-27T08:55:24.089Z,98469.81
2023-03-27T08:58:38.501Z,98481.88
2023-03-27T09:02:14.911Z,98482.53
2023-03-27T09:05:40.618Z,98479.06
2023-03-27T09:09:11.366Z,98475.16
2023-03-27T09:12:17.864Z,98473.34
2023-03-27T09:15:26.324Z,98475.06
2023-03-27T09:18:38.959Z,98476.66
2023-03-27T09:22:01.174Z,98475.75
2023-03-27T09:25:43.649Z,98484.59
2023-03-27T09:29:31.384Z,98481.59
2023-03-27T09:32:57.943Z,98483.19
2023-03-27T09:36:01.499Z,98482.44
2023-03-27T09:39:12.636Z,98475.75
2023-03-27T09:42:24.175Z,98475.25
2023-03-27T09:45:27.677Z,98482.25
2023-03-27T09:48:53.433Z,98487.81
2023-03-27T09:51:58.293Z,98492.34
2023-03-27T09:55:34.409Z,98501.06
2023-03-27T09:58:49.185Z,98498.44
2023-03-27T10:02:09.429Z,98486.50
2023-03-27T10:05:18.616Z,98484.41
2023-03-27T10:08:27.386Z,98472.91
2023-03-27T10:12:08.328Z,98470.47
2023-03-27T10:15:37.072Z,98469.91
2023-03-27T10:18:50.361Z,98474.91
2023-03-27T10:22:04.403Z,98476.09
2023-03-27T10:25:17.872Z,98481.41
2023-03-27T10:28:36.606Z,98483.38
2023-03-27T10:32:01.996Z,98482.84
2023-03-27T10:35:36.763Z,98484.38
2023-03-27T10:39:02.267Z,98478.75
2023-03-27T10:42:17.638Z,98484.16
2023-03-27T10:45:25.596Z,98487.38
2023-03-27T10:48:48.375Z,98478.03
2023-03-27T10:51:55.153Z,98482.75
2023-03-27T10:55:19.731Z,98476.88
2023-03-27T10:58:29.020Z,98478.31
2023-03-27T11:01:46.772Z,98468.72
2023-03-27T11:04:55.723Z,98474.44
2023-03-27T11:08:13.195Z,98477.59
2023-03-27T11:11:22.434Z,98485.66
2023-03-27T11:14:48.457Z,98495.25
2023-03-27T11:18:01.478Z,98495.16
2023-03-27T11:21:37.063Z,98490.56
2023-03-27T11:25:01.127Z,98499.06
2023-03-27T11:28:27.273Z,98494.75
2023-03-27T11:31:39.451Z,98482.91
2023-03-27T11:34:54.255Z,98487.09
2023-03-27T11:38:38.264Z,98495.97
2023-03-27T11:41:46.689Z,98485.97
2023-03-27T11:44:49.565Z,98501.88
2023-03-27T11:48:14.951Z,98497.84
2023-03-27T11:51:32.042Z,98479.19
2023-03-27T11:54:48.520Z,98486.91
2023-03-27T11:58:27.016Z,98497.00
2023-03-27T12:01:57.857Z,98492.31
2023-03-27T12:05:04.004Z,98494.09
2023-03-27T12:08:43.518Z,98488.19
2023-03-27T12:12:09.060Z,98495.47
2023-03-27T12:15:28.938Z,98496.13
2023-03-27T12:18:45.241Z,98503.72
2023-03-27T12:22:24.254Z,98502.06
2023-03-27T12:25:52.282Z,98493.47
2023-03-27T12:29:28.612Z,98494.59
2023-03-27T12:33:01.883Z,98491.28
2023-03-27T12:36:11.514Z,98492.44
2023-03-27T12:39:24.504Z,98496.06
2023-03-27T12:42:49.068Z,98509.75
2023-03-27T12:46:14.183Z,98515.94
2023-03-27T12:49:16.908Z,98519.72
2023-03-27T12:52:35.080Z,98525.00
2023-03-27T12:55:47.157Z,98518.91
2023-03-27T12:59:40.092Z,98522.00
2023-03-27T13:03:19.964Z,98528.84
2023-03-27T13:06:29.192Z,98531.97
2023-03-27T13:09:53.149Z,98537.81
2023-03-27T13:13:22.618Z,98543.78
2023-03-27T13:16:52.591Z,98552.38
2023-03-27T13:20:27.300Z,98553.16
2023-03-27T13:23:53.636Z,98557.34
2023-03-27T13:27:20.202Z,98561.44
2023-03-27T13:30:50.196Z,98570.34
2023-03-27T13:34:28.697Z,98579.91
2023-03-27T13:37:38.234Z,98581.25
2023-03-27T13:40:46.029Z,98593.81
2023-03-27T13:43:54.159Z,98595.78
2023-03-27T13:48:21.410Z,98602.03
2023-03-27T13:51:53.497Z,98584.59
2023-03-27T13:55:39.493Z,98584.34
2023-03-27T13:59:28.081Z,98587.22
2023-03-27T14:02:58.420Z,98588.88
2023-03-27T14:06:34.413Z,98601.66
2023-03-27T14:09:55.944Z,98605.16
2023-03-27T14:13:32.515Z,98612.22
2023-03-27T14:16:51.801Z,98613.84
2023-03-27T14:20:21.006Z,98615.50
2023-03-27T14:23:30.132Z,98618.06
2023-03-27T14:26:49.625Z,98634.97
2023-03-27T14:30:15.744Z,98637.81
2023-03-27T14:33:23.246Z,98649.72
2023-03-27T14:36:34.126Z,98654.94
2023-03-27T14:39:54.161Z,98657.56
2023-03-27T14:42:59.615Z,98663.00
2023-03-27T14:46:06.277Z,98660.81
2023-03-27T14:49:14.154Z,98666.09
2023-03-27T14:52:37.991Z,98686.34
2023-03-27T14:56:01.691Z,98698.34
2023-03-27T14:59:26.894Z,98696.28
2023-03-27T15:02:35.492Z,98705.47
2023-03-27T15:06:02.002Z,98701.41
2023-03-27T15:09:19.178Z,98703.38
2023-03-27T15:12:47.934Z,98709.34
2023-03-27T15:15:53.961Z,98715.47
2023-03-27T15:19:12.351Z,98722.69
2023-03-27T15:22:17.618Z,98727.97
2023-03-27T15:25:31.217Z,98721.03
2023-03-27T15:28:42.418Z,98732.13
2023-03-27T15:31:49.235Z,98749.22
2023-03-27T15:34:58.070Z,98763.88
2023-03-27T15:38:02.524Z,98767.09
2023-03-27T15:41:16.161Z,98773.34
2023-03-27T15:44:22.208Z,98784.09
2023-03-27T15:47:27.209Z,98788.19
2023-03-27T15:50:30.931Z,98801.47
2023-03-27T15:53:39.731Z,98807.41
2023-03-27T15:56:44.080Z,98830.59
2023-03-27T15:59:51.614Z,98826.91
2023-03-27T16:02:56.114Z,98827.84
2023-03-27T16:06:00.316Z,98827.72
2023-03-27T16:09:06.416Z,98835.50
2023-03-27T16:12:11.538Z,98844.53
2023-03-27T16:15:56.254Z,98873.34
2023-03-27T16:19:03.995Z,98871.47
2023-03-27T16:22:06.723Z,98881.13
2023-03-27T16:25:11.531Z,98900.09
2023-03-27T16:28:14.778Z,98885.66
2023-03-27T16:31:19.287Z,98899.97
2023-03-27T16:34:23.789Z,98916.44
2023-03-27T16:37:27.447Z,98921.09
2023-03-27T16:40:31.326Z,98936.63
2023-03-27T16:43:34.078Z,98942.38
2023-03-27T16:46:36.815Z,98949.19
2023-03-27T16:49:39.942Z,98954.31
2023-03-27T16:52:42.775Z,98969.19
2023-03-27T16:55:45.374Z,98978.63
2023-03-27T16:58:48.211Z,98987.63
2023-03-27T17:01:51.324Z,99005.44
2023-03-27T17:04:54.122Z,99006.88
2023-03-27T17:07:57.035Z,99008.41
2023-03-27T17:11:04.026Z,99024.69
2023-03-27T17:14:06.828Z,99033.38
2023-03-27T17:17:09.728Z,99043.03
2023-03-27T17:20:13.436Z,99049.94
2023-03-27T17:23:18.982Z,99054.56
2023-03-27T17:26:27.918Z,99061.53
2023-03-27T17:29:31.555Z,99077.69
2023-03-27T17:32:34.643Z,99084.38
2023-03-27T17:35:41.888Z,99089.59
2023-03-27T17:38:44.990Z,99102.00
2023-03-27T17:41:47.850Z,99123.50
2023-03-27T17:44:50.744Z,99125.84
2023-03-27T17:47:53.638Z,99133.75
2023-03-27T17:51:07.314Z,99150.06
2023-03-27T17:54:12.196Z,99145.28
2023-03-27T17:57:15.007Z,99158.47
2023-03-27T18:00:20.088Z,99161.69
2023-03-27T18:03:23.295Z,99175.38
2023-03-27T18:06:26.683Z,99175.84
2023-03-27T18:09:30.462Z,99187.47
2023-03-27T18:12:33.552Z,99202.72
2023-03-27T18:15:36.416Z,99208.41
2023-03-27T18:18:39.593Z,99208.22
2023-03-27T18:21:44.185Z,99224.94
2023-03-27T18:24:47.106Z,99233.72
2023-03-27T18:27:50.596Z,99238.50
2023-03-27T18:31:09.031Z,99249.34
2023-03-27T18:34:12.511Z,99252.28
2023-03-27T18:37:15.944Z,99259.84
2023-03-27T18:40:19.412Z,99274.28
2023-03-27T18:43:23.624Z,99275.94
2023-03-27T18:46:26.621Z,99266.47
2023-03-27T18:49:29.651Z,99284.03
2023-03-27T18:52:32.706Z,99295.78
2023-03-27T18:55:36.657Z,99305.31
2023-03-27T18:58:39.325Z,99311.25
2023-03-27T19:01:42.519Z,99301.78
2023-03-27T19:04:46.050Z,99322.50
2023-03-27T19:07:48.945Z,99332.75
2023-03-27T19:10:55.670Z,99338.09
2023-03-27T19:14:18.803Z,99327.69
2023-03-27T19:17:40.414Z,99350.63
2023-03-27T19:21:00.900Z,99355.97
2023-03-27T19:24:22.380Z,99370.22
2023-03-27T19:27:25.829Z,99373.69
2023-03-27T19:30:30.128Z,99377.19
2023-03-27T19:33:33.525Z,99369.28
2023-03-27T19:36:37.393Z,99382.31
2023-03-27T19:39:40.458Z,99385.22
2023-03-27T19:42:43.220Z,99403.09
2023-03-27T19:46:08.320Z,99405.97
2023-03-27T19:49:18.410Z,99410.72
2023-03-27T19:52:42.839Z,99409.53
2023-03-27T19:55:45.710Z,99414.28
2023-03-27T19:58:48.940Z,99418.56
2023-03-27T20:01:51.638Z,99422.78
2023-03-27T20:04:54.734Z,99434.22
2023-03-27T20:07:57.773Z,99430.25
2023-03-27T20:11:03.480Z,99422.56
2023-03-27T20:14:06.476Z,99425.59
2023-03-27T20:17:27.003Z,99439.25
2023-03-27T20:20:31.634Z,99460.06
2023-03-27T20:23:37.730Z,99459.84
2023-03-27T20:26:42.255Z,99469.09
2023-03-27T20:29:52.111Z,99469.38
2023-03-27T20:32:55.108Z,99480.31
2023-03-27T20:35:58.438Z,99480.66
2023-03-27T20:39:04.673Z,99489.69
2023-03-27T20:42:07.811Z,99512.72
2023-03-27T20:45:12.037Z,99496.41
2023-03-27T20:48:16.418Z,99504.16
2023-03-27T20:51:24.383Z,99518.97
2023-03-27T20:54:29.476Z,99516.63
2023-03-27T20:57:31.947Z,99523.94
2023-03-27T21:00:35.955Z,99514.06
2023-03-27T21:03:41.851Z,99521.44
2023-03-27T21:06:44.513Z,99525.16
2023-03-27T21:09:47.329Z,99542.25
2023-03-27T21:12:51.614Z,99544.66
2023-03-27T21:15:54.525Z,99546.56
2023-03-27T21:18:57.199Z,99555.19
2023-03-27T21:22:00.469Z,99555.69
2023-03-27T21:25:03.163Z,99577.53
2023-03-27T21:28:06.228Z,99575.75
2023-03-27T21:31:10.573Z,99575.25
2023-03-27T21:34:13.077Z,99580.78
2023-03-27T21:37:16.130Z,99591.31
2023-03-27T21:40:19.886Z,99585.28
2023-03-27T21:43:24.516Z,99590.56
2023-03-27T21:46:27.245Z,99588.69
2023-03-27T21:49:30.094Z,99596.88
2023-03-27T21:52:32.819Z,99601.53
2023-03-27T21:55:36.065Z,99596.88
2023-03-27T21:58:38.546Z,99607.69
2023-03-27T22:01:41.334Z,99604.28
2023-03-27T22:04:43.871Z,99609.03
2023-03-27T22:07:46.562Z,99612.97
2023-03-27T22:10:50.950Z,99617.44
2023-03-27T22:13:53.890Z,99618.31
2023-03-27T22:16:56.673Z,99616.72
2023-03-27T22:19:59.482Z,99623.31
2023-03-27T22:23:02.175Z,99641.22
2023-03-27T22:26:05.430Z,99651.25
2023-03-27T22:29:09.270Z,99658.09
2023-03-27T22:32:12.464Z,99648.84
2023-03-27T22:35:14.960Z,99664.09
2023-03-27T22:38:18.124Z,99661.97
2023-03-27T22:41:22.378Z,99667.78
2023-03-27T22:44:25.145Z,99660.97
2023-03-27T22:47:27.854Z,99675.97
2023-03-27T22:50:30.708Z,99686.59
2023-03-27T22:53:33.704Z,99690.56
2023-03-27T22:56:36.484Z,99697.69
2023-03-27T22:59:38.934Z,99709.25
2023-03-27T23:02:41.612Z,99713.75
2023-03-27T23:05:49.055Z,99717.72
2023-03-27T23:08:51.938Z,99727.66
2023-03-27T23:11:54.735Z,99737.69
2023-03-27T23:14:57.553Z,99733.28
2023-03-27T23:18:00.691Z,99732.47
2023-03-27T23:21:08.142Z,99740.88
2023-03-27T23:24:11.028Z,99741.44
2023-03-27T23:27:14.101Z,99748.00
2023-03-27T23:30:18.489Z,99760.88
2023-03-27T23:33:25.427Z,99767.72
2023-03-27T23:36:28.696Z,99773.03
2023-03-27T23:39:31.523Z,99781.19
2023-03-27T23:42:34.442Z,99782.75
2023-03-27T23:45:37.340Z,99789.69
2023-03-27T23:48:41.843Z,99784.66
2023-03-27T23:51:44.626Z,99787.31
2023-03-27T23:54:47.869Z,99790.75
2023-03-27T23:57:51.278Z,99791.81
